EZY32EH EGGP-LFBD
Flight info
| Callsign | EZY32EH |
|---|---|
| Flight time | N/A |
| Altitude | 34000 |
| Route | REXAM N42 MIDJO P17 BEPHE DCT OSSEP DCT OXCUD DCT ELNIF DCT ZESPE DCT KLAKI DCT MANIG/N0457F350 DCT BADUR DCT KORER/N0459F330 UM616 LUGEN/N0464F290 UM616 TUPAR DCT CNA |
| Aircraft | A320/M-SDE3FGHIRWY/LB1 |
Departure
| Time | N/A |
|---|---|
| Airport | Liverpool John Lennon Airport (EGGP) |
Arrival
| Time | 2026-05-04 16:11 |
|---|---|
| Airport | Bordeaux–Mérignac Airport (LFBD) |
| Time | Latitude | Longitude | Altitude | Speed | Heading |
|---|---|---|---|---|---|
| 2026-05-04 15:14 | 49.75602 | -3.25081 | 34003 ft | 457 kts | 170° |
| 2026-05-04 15:14 | 49.72477 | -3.24173 | 34003 ft | 457 kts | 169° |
| 2026-05-04 15:15 | 49.66232 | -3.22340 | 34003 ft | 457 kts | 169° |
| 2026-05-04 15:15 | 49.59980 | -3.20516 | 34908 ft | 454 kts | 169° |
| 2026-05-04 15:16 | 49.53939 | -3.18762 | 34587 ft | 439 kts | 169° |
| 2026-05-04 15:16 | 49.50951 | -3.17894 | 34147 ft | 436 kts | 169° |
| 2026-05-04 15:16 | 49.44991 | -3.16173 | 34006 ft | 436 kts | 169° |
| 2026-05-04 15:17 | 49.42010 | -3.15308 | 34003 ft | 436 kts | 169° |
| 2026-05-04 15:17 | 49.33102 | -3.12728 | 33999 ft | 436 kts | 169° |
| 2026-05-04 15:18 | 49.27136 | -3.11011 | 34000 ft | 436 kts | 169° |
| 2026-05-04 15:19 | 49.18193 | -3.08460 | 33995 ft | 436 kts | 169° |
| 2026-05-04 15:19 | 49.09285 | -3.05921 | 33992 ft | 436 kts | 169° |
| 2026-05-04 15:20 | 49.03316 | -3.04223 | 33995 ft | 436 kts | 169° |
| 2026-05-04 15:20 | 48.97353 | -3.02524 | 33998 ft | 436 kts | 169° |
| 2026-05-04 15:21 | 48.91387 | -3.00827 | 33991 ft | 436 kts | 169° |
| 2026-05-04 15:22 | 48.82431 | -2.98315 | 33992 ft | 436 kts | 169° |
| 2026-05-04 15:22 | 48.73513 | -2.95798 | 33993 ft | 437 kts | 169° |
| 2026-05-04 15:23 | 48.67627 | -2.93566 | 33999 ft | 437 kts | 163° |
| 2026-05-04 15:23 | 48.61802 | -2.90952 | 33999 ft | 437 kts | 164° |
| 2026-05-04 15:24 | 48.50152 | -2.85774 | 34010 ft | 436 kts | 164° |
| 2026-05-04 15:25 | 48.44366 | -2.83202 | 34008 ft | 436 kts | 164° |
| 2026-05-04 15:26 | 48.35639 | -2.79334 | 34006 ft | 436 kts | 164° |
| 2026-05-04 15:26 | 48.26919 | -2.75502 | 33997 ft | 435 kts | 164° |
| 2026-05-04 15:27 | 48.18253 | -2.71686 | 33988 ft | 434 kts | 164° |
| 2026-05-04 15:28 | 48.09559 | -2.67876 | 33986 ft | 434 kts | 164° |
| 2026-05-04 15:29 | 48.00868 | -2.64102 | 33989 ft | 433 kts | 164° |
| 2026-05-04 15:30 | 47.80687 | -2.55331 | 33986 ft | 432 kts | 164° |
| 2026-05-04 15:31 | 47.72088 | -2.51531 | 33983 ft | 432 kts | 159° |
| 2026-05-04 15:32 | 47.64815 | -2.43788 | 33985 ft | 436 kts | 133° |
| 2026-05-04 15:32 | 47.60859 | -2.36985 | 33982 ft | 436 kts | 133° |
| 2026-05-04 15:34 | 47.50972 | -2.20104 | 33981 ft | 434 kts | 133° |
| 2026-05-04 15:34 | 47.45020 | -2.10011 | 33982 ft | 434 kts | 133° |
| 2026-05-04 15:35 | 47.39072 | -1.99955 | 33983 ft | 433 kts | 133° |
| 2026-05-04 15:36 | 47.33148 | -1.89968 | 33979 ft | 433 kts | 133° |
| 2026-05-04 15:36 | 47.29188 | -1.83289 | 33960 ft | 433 kts | 133° |
| 2026-05-04 15:37 | 47.25227 | -1.76615 | 33948 ft | 433 kts | 133° |
| 2026-05-04 15:37 | 47.21250 | -1.69953 | 33942 ft | 433 kts | 134° |
| 2026-05-04 15:38 | 47.17296 | -1.63339 | 33938 ft | 434 kts | 134° |
| 2026-05-04 15:38 | 47.12979 | -1.57202 | 33936 ft | 432 kts | 140° |
| 2026-05-04 15:39 | 47.08499 | -1.51313 | 33936 ft | 432 kts | 140° |
| 2026-05-04 15:40 | 47.01771 | -1.42487 | 33945 ft | 433 kts | 141° |
| 2026-05-04 15:40 | 46.97304 | -1.36649 | 33953 ft | 433 kts | 141° |
| 2026-05-04 15:41 | 46.92808 | -1.30769 | 33970 ft | 433 kts | 141° |
| 2026-05-04 15:41 | 46.88317 | -1.24895 | 33973 ft | 433 kts | 141° |
| 2026-05-04 15:42 | 46.83814 | -1.19037 | 33978 ft | 433 kts | 141° |
| 2026-05-04 15:42 | 46.79344 | -1.13232 | 33989 ft | 433 kts | 141° |
| 2026-05-04 15:43 | 46.74849 | -1.07407 | 33985 ft | 432 kts | 142° |
| 2026-05-04 15:43 | 46.70361 | -1.01604 | 33985 ft | 431 kts | 142° |
| 2026-05-04 15:44 | 46.65884 | -0.95821 | 33988 ft | 430 kts | 142° |
| 2026-05-04 15:44 | 46.61440 | -0.90099 | 33989 ft | 429 kts | 142° |
| 2026-05-04 15:45 | 46.56965 | -0.84368 | 33987 ft | 428 kts | 142° |
| 2026-05-04 15:45 | 46.52515 | -0.78636 | 33976 ft | 427 kts | 142° |
| 2026-05-04 15:46 | 46.48071 | -0.72908 | 33971 ft | 427 kts | 142° |
| 2026-05-04 15:46 | 46.43503 | -0.67466 | 33960 ft | 421 kts | 152° |
| 2026-05-04 15:47 | 46.38242 | -0.64119 | 33973 ft | 415 kts | 165° |
| 2026-05-04 15:47 | 46.32742 | -0.61597 | 33974 ft | 415 kts | 165° |
| 2026-05-04 15:48 | 46.27252 | -0.59050 | 33955 ft | 414 kts | 165° |
| 2026-05-04 15:48 | 46.19014 | -0.55266 | 33958 ft | 414 kts | 165° |
| 2026-05-04 15:49 | 46.13559 | -0.52767 | 33955 ft | 414 kts | 165° |
| 2026-05-04 15:49 | 46.08072 | -0.50255 | 33956 ft | 414 kts | 165° |
| 2026-05-04 15:50 | 46.02622 | -0.47761 | 33955 ft | 402 kts | 165° |
| 2026-05-04 15:50 | 46.00009 | -0.46564 | 33717 ft | 387 kts | 165° |
| 2026-05-04 15:50 | 45.97475 | -0.45408 | 33061 ft | 378 kts | 165° |
| 2026-05-04 15:51 | 45.95021 | -0.44294 | 32386 ft | 371 kts | 165° |
| 2026-05-04 15:51 | 45.92583 | -0.43188 | 31723 ft | 364 kts | 165° |
| 2026-05-04 15:51 | 45.90187 | -0.42100 | 31066 ft | 358 kts | 164° |
| 2026-05-04 15:51 | 45.87831 | -0.41029 | 30419 ft | 352 kts | 164° |
| 2026-05-04 15:52 | 45.85518 | -0.39976 | 29697 ft | 346 kts | 164° |
| 2026-05-04 15:52 | 45.83200 | -0.38927 | 28103 ft | 356 kts | 164° |
| 2026-05-04 15:52 | 45.80784 | -0.37841 | 26399 ft | 371 kts | 164° |
| 2026-05-04 15:52 | 45.78272 | -0.36715 | 24733 ft | 384 kts | 163° |
| 2026-05-04 15:53 | 45.75684 | -0.35552 | 23129 ft | 395 kts | 163° |
| 2026-05-04 15:53 | 45.73071 | -0.34376 | 21535 ft | 401 kts | 164° |
| 2026-05-04 15:53 | 45.70434 | -0.33186 | 20956 ft | 395 kts | 164° |
| 2026-05-04 15:53 | 45.67803 | -0.31997 | 20431 ft | 396 kts | 164° |
| 2026-05-04 15:54 | 45.65151 | -0.31059 | 19752 ft | 393 kts | 172° |
| 2026-05-04 15:54 | 45.62392 | -0.30604 | 19463 ft | 407 kts | 175° |
| 2026-05-04 15:54 | 45.59562 | -0.30156 | 19090 ft | 410 kts | 174° |
| 2026-05-04 15:54 | 45.56728 | -0.29691 | 18716 ft | 409 kts | 174° |
| 2026-05-04 15:55 | 45.53908 | -0.29217 | 18335 ft | 407 kts | 174° |
| 2026-05-04 15:55 | 45.51137 | -0.28750 | 17932 ft | 405 kts | 174° |
| 2026-05-04 15:55 | 45.48339 | -0.28283 | 17559 ft | 404 kts | 174° |
| 2026-05-04 15:55 | 45.45557 | -0.27824 | 17208 ft | 398 kts | 174° |
| 2026-05-04 15:56 | 45.42884 | -0.27384 | 17058 ft | 374 kts | 175° |
| 2026-05-04 15:56 | 45.40389 | -0.26973 | 16923 ft | 349 kts | 175° |
| 2026-05-04 15:56 | 45.38056 | -0.26589 | 16782 ft | 327 kts | 175° |
| 2026-05-04 15:56 | 45.35864 | -0.26230 | 16595 ft | 309 kts | 175° |
| 2026-05-04 15:57 | 45.33744 | -0.25887 | 16250 ft | 304 kts | 175° |
| 2026-05-04 15:57 | 45.31653 | -0.25553 | 15912 ft | 302 kts | 175° |
| 2026-05-04 15:57 | 45.29596 | -0.25226 | 15547 ft | 301 kts | 175° |
| 2026-05-04 15:57 | 45.27522 | -0.24895 | 15169 ft | 300 kts | 175° |
| 2026-05-04 15:58 | 45.25452 | -0.24560 | 14803 ft | 299 kts | 175° |
| 2026-05-04 15:58 | 45.23388 | -0.24223 | 14444 ft | 298 kts | 175° |
| 2026-05-04 15:58 | 45.21330 | -0.23889 | 14090 ft | 297 kts | 175° |
| 2026-05-04 15:58 | 45.19270 | -0.23768 | 13703 ft | 296 kts | 186° |
| 2026-05-04 15:59 | 45.17269 | -0.24356 | 13346 ft | 292 kts | 200° |
| 2026-05-04 15:59 | 45.15461 | -0.25599 | 13069 ft | 288 kts | 213° |
| 2026-05-04 15:59 | 45.13926 | -0.27395 | 12795 ft | 286 kts | 225° |
| 2026-05-04 15:59 | 45.12537 | -0.29408 | 12528 ft | 285 kts | 225° |
| 2026-05-04 16:00 | 45.11171 | -0.31376 | 12265 ft | 284 kts | 225° |
| 2026-05-04 16:00 | 45.09793 | -0.33368 | 11996 ft | 282 kts | 227° |
| 2026-05-04 16:00 | 45.08603 | -0.35583 | 11615 ft | 284 kts | 234° |
| 2026-05-04 16:00 | 45.07515 | -0.37790 | 11232 ft | 284 kts | 234° |
| 2026-05-04 16:01 | 45.06388 | -0.40082 | 10847 ft | 283 kts | 234° |
| 2026-05-04 16:01 | 45.05276 | -0.42343 | 10378 ft | 277 kts | 234° |
| 2026-05-04 16:01 | 45.04182 | -0.44568 | 9945 ft | 274 kts | 234° |
| 2026-05-04 16:01 | 45.03099 | -0.46771 | 9557 ft | 273 kts | 234° |
| 2026-05-04 16:02 | 45.02029 | -0.48936 | 9156 ft | 271 kts | 235° |
| 2026-05-04 16:02 | 45.00950 | -0.51112 | 8756 ft | 270 kts | 235° |
| 2026-05-04 16:02 | 44.98794 | -0.55465 | 7948 ft | 269 kts | 236° |
| 2026-05-04 16:03 | 44.97722 | -0.57625 | 7538 ft | 268 kts | 236° |
| 2026-05-04 16:03 | 44.96654 | -0.59774 | 7145 ft | 267 kts | 236° |
| 2026-05-04 16:03 | 44.95589 | -0.61915 | 6746 ft | 266 kts | 237° |
| 2026-05-04 16:03 | 44.94530 | -0.64049 | 6349 ft | 266 kts | 237° |
| 2026-05-04 16:04 | 44.93471 | -0.66183 | 5944 ft | 265 kts | 238° |
| 2026-05-04 16:04 | 44.91381 | -0.70380 | 5154 ft | 263 kts | 238° |
| 2026-05-04 16:04 | 44.90331 | -0.72487 | 4766 ft | 262 kts | 238° |
| 2026-05-04 16:05 | 44.89309 | -0.74531 | 4684 ft | 248 kts | 238° |
| 2026-05-04 16:05 | 44.88343 | -0.76461 | 4588 ft | 233 kts | 238° |
| 2026-05-04 16:05 | 44.86505 | -0.80132 | 4397 ft | 228 kts | 239° |
| 2026-05-04 16:06 | 44.85591 | -0.81961 | 4301 ft | 229 kts | 239° |
| 2026-05-04 16:06 | 44.83197 | -0.86412 | 4048 ft | 206 kts | 221° |
| 2026-05-04 16:07 | 44.81487 | -0.87634 | 3795 ft | 214 kts | 200° |
| 2026-05-04 16:07 | 44.77456 | -0.85743 | 2674 ft | 210 kts | 126° |
| 2026-05-04 16:08 | 44.76813 | -0.83974 | 2379 ft | 199 kts | 103° |
| 2026-05-04 16:08 | 44.77674 | -0.78929 | 1547 ft | 165 kts | 41° |
| 2026-05-04 16:09 | 44.79202 | -0.76750 | 1060 ft | 148 kts | 39° |
| 2026-05-04 16:09 | 44.80585 | -0.74722 | 529 ft | 142 kts | 40° |
| 2026-05-04 16:10 | 44.81979 | -0.72794 | 228 ft | 140 kts | 41° |
| 2026-05-04 16:11 | 44.82991 | -0.71189 | 163 ft | 15 kts | 102° |
| 2026-05-04 16:11 | 44.82967 | -0.71060 | 164 ft | 12 kts | 106° |
| 2026-05-04 16:12 | 44.82912 | -0.70790 | 166 ft | 7 kts | 106° |
| 2026-05-04 16:12 | 44.82891 | -0.70423 | 167 ft | 13 kts | 79° |
| 2026-05-04 16:13 | 44.82886 | -0.70243 | 167 ft | 8 kts | 39° |
| 2026-05-04 16:13 | 44.82914 | -0.70204 | 167 ft | 0 kts | 53° |